In Rescue
 
Open Full Screen Window  High Contrast Mode
Wind Gusting 16 knots
08
May 25, 2022 9:23 PM CDT
Present Weather: Light Rain
Weather Information
Wind Direction
  020 °
Wind Speed
  08 kt (9 mph)
Wind Gust
  16 kt (18 mph)
Altimeter
29.87 in
Visibility
10 SM
Temperature
09° C
48° F
Dewpoint
09° C
48° F
Humidity
100%
1hr Rain Fall
00.00 in.
24hr Rain Fall
00.45 in.
Sky Condition
Overcast @ 800 ft
IFR

METAR KANE 260223Z AUTO 02008G16KT 10SM -RA OVC008 09/09 A2987 RMK AO2

FAA Disclaimer: The data displayed is for advisory purposes only and is not to be used for flight planning or operations.